sensor_id;sensor_type;location;lat;lon;timestamp;P1;durP1;ratioP1;P2;durP2;ratioP2
70985;SDS011;58645;43.068;25.610;2023-04-23T00:00:42;22.92;;;13.73;;
70985;SDS011;58645;43.068;25.610;2023-04-23T00:03:08;25.35;;;14.88;;
70985;SDS011;58645;43.068;25.610;2023-04-23T00:05:36;27.20;;;15.20;;
70985;SDS011;58645;43.068;25.610;2023-04-23T00:08:03;29.05;;;16.20;;
70985;SDS011;58645;43.068;25.610;2023-04-23T00:10:29;28.75;;;15.80;;
70985;SDS011;58645;43.068;25.610;2023-04-23T00:12:55;28.27;;;16.23;;
70985;SDS011;58645;43.068;25.610;2023-04-23T00:15:21;25.90;;;15.73;;
70985;SDS011;58645;43.068;25.610;2023-04-23T00:17:48;26.48;;;15.77;;
70985;SDS011;58645;43.068;25.610;2023-04-23T00:20:14;24.73;;;14.45;;
70985;SDS011;58645;43.068;25.610;2023-04-23T00:22:41;22.40;;;13.52;;
70985;SDS011;58645;43.068;25.610;2023-04-23T00:25:08;22.55;;;13.10;;
70985;SDS011;58645;43.068;25.610;2023-04-23T00:27:35;21.33;;;12.73;;
70985;SDS011;58645;43.068;25.610;2023-04-23T00:30:01;21.15;;;13.15;;
70985;SDS011;58645;43.068;25.610;2023-04-23T00:32:27;20.00;;;11.88;;
70985;SDS011;58645;43.068;25.610;2023-04-23T00:34:53;21.85;;;11.77;;
70985;SDS011;58645;43.068;25.610;2023-04-23T00:37:20;21.88;;;13.70;;
70985;SDS011;58645;43.068;25.610;2023-04-23T00:39:47;26.67;;;14.30;;
70985;SDS011;58645;43.068;25.610;2023-04-23T00:42:12;30.27;;;16.27;;
70985;SDS011;58645;43.068;25.610;2023-04-23T00:44:41;25.42;;;14.98;;
70985;SDS011;58645;43.068;25.610;2023-04-23T00:47:07;25.45;;;14.38;;
70985;SDS011;58645;43.068;25.610;2023-04-23T00:49:34;27.50;;;16.02;;
70985;SDS011;58645;43.068;25.610;2023-04-23T00:52:01;29.40;;;13.95;;
70985;SDS011;58645;43.068;25.610;2023-04-23T00:54:27;24.45;;;14.35;;
70985;SDS011;58645;43.068;25.610;2023-04-23T00:56:53;27.42;;;15.88;;
70985;SDS011;58645;43.068;25.610;2023-04-23T00:59:22;28.00;;;15.57;;
70985;SDS011;58645;43.068;25.610;2023-04-23T01:01:51;28.95;;;15.38;;
70985;SDS011;58645;43.068;25.610;2023-04-23T01:04:17;36.05;;;16.42;;
70985;SDS011;58645;43.068;25.610;2023-04-23T01:09:13;52.92;;;20.88;;
70985;SDS011;58645;43.068;25.610;2023-04-23T01:11:42;42.00;;;18.58;;
70985;SDS011;58645;43.068;25.610;2023-04-23T01:14:08;31.75;;;14.68;;
70985;SDS011;58645;43.068;25.610;2023-04-23T01:16:35;21.92;;;12.90;;
70985;SDS011;58645;43.068;25.610;2023-04-23T01:19:03;22.52;;;11.98;;
70985;SDS011;58645;43.068;25.610;2023-04-23T01:21:30;19.08;;;11.52;;
70985;SDS011;58645;43.068;25.610;2023-04-23T01:23:58;16.10;;;9.80;;
70985;SDS011;58645;43.068;25.610;2023-04-23T01:26:24;15.20;;;9.70;;
70985;SDS011;58645;43.068;25.610;2023-04-23T01:28:50;20.05;;;9.98;;
70985;SDS011;58645;43.068;25.610;2023-04-23T01:31:16;17.05;;;10.07;;
70985;SDS011;58645;43.068;25.610;2023-04-23T01:33:43;16.15;;;10.70;;
70985;SDS011;58645;43.068;25.610;2023-04-23T01:36:09;17.73;;;10.55;;
70985;SDS011;58645;43.068;25.610;2023-04-23T01:38:35;19.02;;;11.60;;
70985;SDS011;58645;43.068;25.610;2023-04-23T01:41:03;17.83;;;10.95;;
70985;SDS011;58645;43.068;25.610;2023-04-23T01:45:56;20.25;;;11.52;;
70985;SDS011;58645;43.068;25.610;2023-04-23T01:50:49;22.50;;;12.27;;
70985;SDS011;58645;43.068;25.610;2023-04-23T01:53:16;20.17;;;11.77;;
70985;SDS011;58645;43.068;25.610;2023-04-23T01:55:43;25.15;;;12.80;;
70985;SDS011;58645;43.068;25.610;2023-04-23T01:58:11;22.33;;;13.27;;
70985;SDS011;58645;43.068;25.610;2023-04-23T02:00:36;22.83;;;13.65;;
70985;SDS011;58645;43.068;25.610;2023-04-23T02:03:02;21.58;;;13.32;;
70985;SDS011;58645;43.068;25.610;2023-04-23T02:05:28;27.25;;;12.63;;
70985;SDS011;58645;43.068;25.610;2023-04-23T02:07:58;22.10;;;12.88;;
70985;SDS011;58645;43.068;25.610;2023-04-23T02:10:24;23.10;;;12.57;;
70985;SDS011;58645;43.068;25.610;2023-04-23T02:12:50;26.83;;;14.07;;
70985;SDS011;58645;43.068;25.610;2023-04-23T02:15:15;26.05;;;14.88;;
70985;SDS011;58645;43.068;25.610;2023-04-23T02:17:41;29.05;;;14.38;;
70985;SDS011;58645;43.068;25.610;2023-04-23T02:20:08;24.85;;;14.70;;
70985;SDS011;58645;43.068;25.610;2023-04-23T02:22:38;28.17;;;15.02;;
70985;SDS011;58645;43.068;25.610;2023-04-23T02:25:05;31.55;;;17.42;;
70985;SDS011;58645;43.068;25.610;2023-04-23T02:27:32;35.40;;;17.65;;
70985;SDS011;58645;43.068;25.610;2023-04-23T02:29:58;33.13;;;16.42;;
70985;SDS011;58645;43.068;25.610;2023-04-23T02:32:24;29.52;;;15.70;;
70985;SDS011;58645;43.068;25.610;2023-04-23T02:34:50;32.05;;;16.95;;
70985;SDS011;58645;43.068;25.610;2023-04-23T02:37:16;31.98;;;15.25;;
70985;SDS011;58645;43.068;25.610;2023-04-23T02:39:42;27.33;;;14.27;;
70985;SDS011;58645;43.068;25.610;2023-04-23T02:42:08;26.83;;;14.48;;
70985;SDS011;58645;43.068;25.610;2023-04-23T02:44:33;25.80;;;13.75;;
70985;SDS011;58645;43.068;25.610;2023-04-23T02:46:59;24.20;;;14.32;;
70985;SDS011;58645;43.068;25.610;2023-04-23T02:49:25;23.52;;;13.88;;
70985;SDS011;58645;43.068;25.610;2023-04-23T02:51:51;22.05;;;13.57;;
70985;SDS011;58645;43.068;25.610;2023-04-23T02:54:17;27.63;;;15.02;;
70985;SDS011;58645;43.068;25.610;2023-04-23T02:56:43;24.13;;;13.35;;
70985;SDS011;58645;43.068;25.610;2023-04-23T02:59:09;22.05;;;12.82;;
70985;SDS011;58645;43.068;25.610;2023-04-23T03:01:35;24.52;;;14.10;;
70985;SDS011;58645;43.068;25.610;2023-04-23T03:04:01;24.20;;;12.98;;
70985;SDS011;58645;43.068;25.610;2023-04-23T03:06:27;19.95;;;12.50;;
70985;SDS011;58645;43.068;25.610;2023-04-23T03:08:55;22.05;;;12.05;;
70985;SDS011;58645;43.068;25.610;2023-04-23T03:11:22;21.30;;;13.50;;
70985;SDS011;58645;43.068;25.610;2023-04-23T03:13:47;21.42;;;11.52;;
70985;SDS011;58645;43.068;25.610;2023-04-23T03:16:13;19.02;;;11.23;;
70985;SDS011;58645;43.068;25.610;2023-04-23T03:18:40;18.75;;;10.95;;
70985;SDS011;58645;43.068;25.610;2023-04-23T03:21:05;18.15;;;10.15;;
70985;SDS011;58645;43.068;25.610;2023-04-23T03:23:31;21.67;;;11.77;;
70985;SDS011;58645;43.068;25.610;2023-04-23T03:25:57;25.52;;;12.73;;
70985;SDS011;58645;43.068;25.610;2023-04-23T03:28:22;30.88;;;15.07;;
70985;SDS011;58645;43.068;25.610;2023-04-23T03:30:48;28.52;;;13.93;;
70985;SDS011;58645;43.068;25.610;2023-04-23T03:33:14;29.55;;;14.73;;
70985;SDS011;58645;43.068;25.610;2023-04-23T03:35:40;19.60;;;12.15;;
70985;SDS011;58645;43.068;25.610;2023-04-23T03:38:06;21.98;;;13.20;;
70985;SDS011;58645;43.068;25.610;2023-04-23T03:40:31;26.73;;;13.82;;
70985;SDS011;58645;43.068;25.610;2023-04-23T03:42:57;23.25;;;13.40;;
70985;SDS011;58645;43.068;25.610;2023-04-23T03:45:23;23.88;;;13.80;;
70985;SDS011;58645;43.068;25.610;2023-04-23T03:47:50;24.05;;;13.82;;
70985;SDS011;58645;43.068;25.610;2023-04-23T03:50:15;22.58;;;13.82;;
70985;SDS011;58645;43.068;25.610;2023-04-23T03:52:41;25.27;;;13.57;;
70985;SDS011;58645;43.068;25.610;2023-04-23T03:55:08;25.52;;;13.25;;
70985;SDS011;58645;43.068;25.610;2023-04-23T03:57:36;21.48;;;12.10;;
70985;SDS011;58645;43.068;25.610;2023-04-23T04:00:03;17.02;;;11.27;;
70985;SDS011;58645;43.068;25.610;2023-04-23T04:02:32;15.55;;;9.02;;
70985;SDS011;58645;43.068;25.610;2023-04-23T04:04:58;16.15;;;9.50;;
70985;SDS011;58645;43.068;25.610;2023-04-23T04:07:24;13.52;;;8.90;;
70985;SDS011;58645;43.068;25.610;2023-04-23T04:09:51;14.95;;;9.73;;
70985;SDS011;58645;43.068;25.610;2023-04-23T04:12:16;19.00;;;10.80;;
70985;SDS011;58645;43.068;25.610;2023-04-23T04:14:42;21.27;;;12.43;;
70985;SDS011;58645;43.068;25.610;2023-04-23T04:17:08;26.67;;;13.85;;
70985;SDS011;58645;43.068;25.610;2023-04-23T04:19:33;26.65;;;15.90;;
70985;SDS011;58645;43.068;25.610;2023-04-23T04:21:59;38.17;;;18.50;;
70985;SDS011;58645;43.068;25.610;2023-04-23T04:24:27;44.33;;;20.17;;
70985;SDS011;58645;43.068;25.610;2023-04-23T04:26:56;44.72;;;20.80;;
70985;SDS011;58645;43.068;25.610;2023-04-23T04:29:24;38.83;;;18.63;;
70985;SDS011;58645;43.068;25.610;2023-04-23T04:31:50;46.25;;;20.40;;
70985;SDS011;58645;43.068;25.610;2023-04-23T04:34:17;38.83;;;18.63;;
70985;SDS011;58645;43.068;25.610;2023-04-23T04:36:44;40.80;;;19.33;;
70985;SDS011;58645;43.068;25.610;2023-04-23T04:39:11;37.58;;;19.17;;
70985;SDS011;58645;43.068;25.610;2023-04-23T04:41:39;45.28;;;19.70;;
70985;SDS011;58645;43.068;25.610;2023-04-23T04:46:32;39.22;;;19.48;;
70985;SDS011;58645;43.068;25.610;2023-04-23T04:48:59;36.80;;;18.13;;
70985;SDS011;58645;43.068;25.610;2023-04-23T04:51:25;33.75;;;16.95;;
70985;SDS011;58645;43.068;25.610;2023-04-23T04:53:51;34.90;;;17.75;;
70985;SDS011;58645;43.068;25.610;2023-04-23T04:56:17;39.47;;;18.15;;
70985;SDS011;58645;43.068;25.610;2023-04-23T04:58:42;33.85;;;17.73;;
70985;SDS011;58645;43.068;25.610;2023-04-23T05:01:08;30.15;;;14.55;;
70985;SDS011;58645;43.068;25.610;2023-04-23T05:03:34;25.67;;;12.57;;
70985;SDS011;58645;43.068;25.610;2023-04-23T05:06:01;30.02;;;14.60;;
70985;SDS011;58645;43.068;25.610;2023-04-23T05:08:26;30.05;;;15.05;;
70985;SDS011;58645;43.068;25.610;2023-04-23T05:10:52;24.08;;;13.07;;
70985;SDS011;58645;43.068;25.610;2023-04-23T05:13:18;26.77;;;13.75;;
70985;SDS011;58645;43.068;25.610;2023-04-23T05:15:44;30.75;;;15.40;;
70985;SDS011;58645;43.068;25.610;2023-04-23T05:18:11;33.70;;;18.58;;
70985;SDS011;58645;43.068;25.610;2023-04-23T05:20:36;27.25;;;14.88;;
70985;SDS011;58645;43.068;25.610;2023-04-23T05:23:02;20.33;;;11.25;;
70985;SDS011;58645;43.068;25.610;2023-04-23T05:25:29;17.48;;;8.63;;
70985;SDS011;58645;43.068;25.610;2023-04-23T05:27:55;13.55;;;7.53;;
70985;SDS011;58645;43.068;25.610;2023-04-23T05:30:21;11.05;;;6.20;;
70985;SDS011;58645;43.068;25.610;2023-04-23T05:32:48;10.57;;;6.43;;
70985;SDS011;58645;43.068;25.610;2023-04-23T05:35:14;13.25;;;7.13;;
70985;SDS011;58645;43.068;25.610;2023-04-23T05:37:40;14.75;;;8.00;;
70985;SDS011;58645;43.068;25.610;2023-04-23T05:40:06;15.23;;;9.55;;
70985;SDS011;58645;43.068;25.610;2023-04-23T05:42:34;15.32;;;8.77;;
70985;SDS011;58645;43.068;25.610;2023-04-23T05:45:00;18.50;;;9.65;;
70985;SDS011;58645;43.068;25.610;2023-04-23T05:49:52;16.30;;;8.65;;
70985;SDS011;58645;43.068;25.610;2023-04-23T05:52:18;19.00;;;10.27;;
70985;SDS011;58645;43.068;25.610;2023-04-23T05:54:44;18.90;;;12.27;;
70985;SDS011;58645;43.068;25.610;2023-04-23T05:57:10;18.05;;;11.98;;
70985;SDS011;58645;43.068;25.610;2023-04-23T06:02:02;17.42;;;9.95;;
70985;SDS011;58645;43.068;25.610;2023-04-23T06:04:27;18.83;;;11.77;;
70985;SDS011;58645;43.068;25.610;2023-04-23T06:06:53;19.13;;;12.52;;
70985;SDS011;58645;43.068;25.610;2023-04-23T06:09:19;23.85;;;13.43;;
70985;SDS011;58645;43.068;25.610;2023-04-23T06:11:45;24.08;;;13.95;;
70985;SDS011;58645;43.068;25.610;2023-04-23T06:14:11;21.35;;;13.63;;
70985;SDS011;58645;43.068;25.610;2023-04-23T06:16:36;20.88;;;13.43;;
70985;SDS011;58645;43.068;25.610;2023-04-23T06:19:02;22.23;;;12.50;;
70985;SDS011;58645;43.068;25.610;2023-04-23T06:21:28;19.73;;;12.98;;
70985;SDS011;58645;43.068;25.610;2023-04-23T06:23:54;17.63;;;12.65;;
70985;SDS011;58645;43.068;25.610;2023-04-23T06:26:20;22.17;;;13.10;;
70985;SDS011;58645;43.068;25.610;2023-04-23T06:28:45;26.13;;;12.75;;
70985;SDS011;58645;43.068;25.610;2023-04-23T06:31:11;21.52;;;13.57;;
70985;SDS011;58645;43.068;25.610;2023-04-23T06:33:37;21.75;;;12.70;;
70985;SDS011;58645;43.068;25.610;2023-04-23T06:36:03;21.80;;;12.65;;
70985;SDS011;58645;43.068;25.610;2023-04-23T06:38:30;29.63;;;16.38;;
70985;SDS011;58645;43.068;25.610;2023-04-23T06:40:56;23.50;;;14.38;;
70985;SDS011;58645;43.068;25.610;2023-04-23T06:43:23;24.58;;;13.02;;
70985;SDS011;58645;43.068;25.610;2023-04-23T06:48:14;23.35;;;13.30;;
70985;SDS011;58645;43.068;25.610;2023-04-23T06:50:41;24.92;;;15.02;;
70985;SDS011;58645;43.068;25.610;2023-04-23T06:53:07;29.77;;;17.38;;
70985;SDS011;58645;43.068;25.610;2023-04-23T06:55:32;28.15;;;15.88;;
70985;SDS011;58645;43.068;25.610;2023-04-23T06:57:58;24.33;;;15.02;;
70985;SDS011;58645;43.068;25.610;2023-04-23T07:00:24;25.35;;;14.85;;
70985;SDS011;58645;43.068;25.610;2023-04-23T07:02:50;18.33;;;12.80;;
70985;SDS011;58645;43.068;25.610;2023-04-23T07:07:42;18.58;;;11.90;;
70985;SDS011;58645;43.068;25.610;2023-04-23T07:12:36;15.20;;;10.52;;
70985;SDS011;58645;43.068;25.610;2023-04-23T07:15:02;17.88;;;11.88;;
70985;SDS011;58645;43.068;25.610;2023-04-23T07:17:29;18.10;;;11.50;;
70985;SDS011;58645;43.068;25.610;2023-04-23T07:22:21;17.75;;;10.20;;
70985;SDS011;58645;43.068;25.610;2023-04-23T07:24:48;13.93;;;9.88;;
70985;SDS011;58645;43.068;25.610;2023-04-23T07:29:39;17.27;;;10.35;;
70985;SDS011;58645;43.068;25.610;2023-04-23T07:32:05;12.95;;;9.95;;
70985;SDS011;58645;43.068;25.610;2023-04-23T07:36:56;12.55;;;8.32;;
70985;SDS011;58645;43.068;25.610;2023-04-23T07:39:22;10.55;;;6.93;;
70985;SDS011;58645;43.068;25.610;2023-04-23T07:41:48;12.70;;;7.45;;
70985;SDS011;58645;43.068;25.610;2023-04-23T07:44:13;9.82;;;5.22;;
70985;SDS011;58645;43.068;25.610;2023-04-23T07:46:39;8.88;;;5.22;;
70985;SDS011;58645;43.068;25.610;2023-04-23T07:49:05;8.88;;;6.00;;
70985;SDS011;58645;43.068;25.610;2023-04-23T07:51:32;11.27;;;4.90;;
70985;SDS011;58645;43.068;25.610;2023-04-23T07:53:59;10.52;;;5.20;;
70985;SDS011;58645;43.068;25.610;2023-04-23T07:56:24;10.38;;;6.20;;
70985;SDS011;58645;43.068;25.610;2023-04-23T07:58:50;9.32;;;6.20;;
70985;SDS011;58645;43.068;25.610;2023-04-23T08:01:18;9.27;;;6.15;;
70985;SDS011;58645;43.068;25.610;2023-04-23T08:03:43;10.20;;;5.28;;
70985;SDS011;58645;43.068;25.610;2023-04-23T08:06:10;7.88;;;4.47;;
70985;SDS011;58645;43.068;25.610;2023-04-23T08:08:37;6.18;;;4.05;;
70985;SDS011;58645;43.068;25.610;2023-04-23T08:11:04;4.63;;;3.05;;
70985;SDS011;58645;43.068;25.610;2023-04-23T08:13:31;7.93;;;4.05;;
70985;SDS011;58645;43.068;25.610;2023-04-23T08:15:57;8.13;;;5.20;;
70985;SDS011;58645;43.068;25.610;2023-04-23T08:18:22;7.32;;;5.18;;
70985;SDS011;58645;43.068;25.610;2023-04-23T08:20:48;5.65;;;2.72;;
70985;SDS011;58645;43.068;25.610;2023-04-23T08:23:14;6.28;;;2.92;;
70985;SDS011;58645;43.068;25.610;2023-04-23T08:25:40;9.85;;;5.00;;
70985;SDS011;58645;43.068;25.610;2023-04-23T08:28:06;6.35;;;2.45;;
70985;SDS011;58645;43.068;25.610;2023-04-23T08:30:32;5.40;;;2.40;;
70985;SDS011;58645;43.068;25.610;2023-04-23T08:32:58;5.63;;;2.40;;
70985;SDS011;58645;43.068;25.610;2023-04-23T08:35:24;4.72;;;2.50;;
70985;SDS011;58645;43.068;25.610;2023-04-23T08:37:49;4.18;;;2.30;;
70985;SDS011;58645;43.068;25.610;2023-04-23T08:40:15;4.68;;;2.60;;
70985;SDS011;58645;43.068;25.610;2023-04-23T08:42:56;5.93;;;2.72;;
70985;SDS011;58645;43.068;25.610;2023-04-23T08:45:35;4.88;;;2.30;;
70985;SDS011;58645;43.068;25.610;2023-04-23T08:48:05;5.45;;;1.95;;
70985;SDS011;58645;43.068;25.610;2023-04-23T08:50:33;4.95;;;2.38;;
70985;SDS011;58645;43.068;25.610;2023-04-23T08:53:02;4.28;;;2.30;;
70985;SDS011;58645;43.068;25.610;2023-04-23T08:55:30;7.20;;;2.40;;
70985;SDS011;58645;43.068;25.610;2023-04-23T08:57:59;7.30;;;2.30;;
70985;SDS011;58645;43.068;25.610;2023-04-23T09:00:26;3.45;;;2.58;;
70985;SDS011;58645;43.068;25.610;2023-04-23T09:02:53;3.65;;;2.38;;
70985;SDS011;58645;43.068;25.610;2023-04-23T09:05:20;6.22;;;2.95;;
70985;SDS011;58645;43.068;25.610;2023-04-23T09:07:46;4.80;;;2.42;;
70985;SDS011;58645;43.068;25.610;2023-04-23T09:10:12;4.97;;;2.78;;
70985;SDS011;58645;43.068;25.610;2023-04-23T09:12:39;5.20;;;2.47;;
70985;SDS011;58645;43.068;25.610;2023-04-23T09:15:06;5.82;;;2.85;;
70985;SDS011;58645;43.068;25.610;2023-04-23T09:17:43;5.63;;;2.85;;
70985;SDS011;58645;43.068;25.610;2023-04-23T09:20:11;4.97;;;2.53;;
70985;SDS011;58645;43.068;25.610;2023-04-23T09:25:03;6.03;;;2.33;;
70985;SDS011;58645;43.068;25.610;2023-04-23T09:27:30;4.28;;;2.38;;
70985;SDS011;58645;43.068;25.610;2023-04-23T09:29:56;4.95;;;2.35;;
70985;SDS011;58645;43.068;25.610;2023-04-23T09:32:30;3.42;;;2.00;;
70985;SDS011;58645;43.068;25.610;2023-04-23T09:35:01;4.15;;;2.38;;
70985;SDS011;58645;43.068;25.610;2023-04-23T09:37:30;5.90;;;2.53;;
70985;SDS011;58645;43.068;25.610;2023-04-23T09:39:57;6.85;;;2.20;;
70985;SDS011;58645;43.068;25.610;2023-04-23T09:42:24;4.45;;;2.38;;
70985;SDS011;58645;43.068;25.610;2023-04-23T09:44:56;5.07;;;2.33;;
70985;SDS011;58645;43.068;25.610;2023-04-23T09:47:23;3.63;;;2.17;;
70985;SDS011;58645;43.068;25.610;2023-04-23T09:49:49;5.25;;;2.20;;
70985;SDS011;58645;43.068;25.610;2023-04-23T09:52:16;5.18;;;2.10;;
70985;SDS011;58645;43.068;25.610;2023-04-23T09:54:42;5.68;;;2.72;;
70985;SDS011;58645;43.068;25.610;2023-04-23T09:57:11;4.22;;;2.42;;
70985;SDS011;58645;43.068;25.610;2023-04-23T09:59:37;5.07;;;1.83;;
70985;SDS011;58645;43.068;25.610;2023-04-23T10:02:04;4.95;;;1.63;;
70985;SDS011;58645;43.068;25.610;2023-04-23T10:04:31;2.92;;;2.05;;
70985;SDS011;58645;43.068;25.610;2023-04-23T10:07:02;4.35;;;2.08;;
70985;SDS011;58645;43.068;25.610;2023-04-23T10:09:32;4.53;;;2.20;;
70985;SDS011;58645;43.068;25.610;2023-04-23T10:11:59;4.38;;;2.30;;
70985;SDS011;58645;43.068;25.610;2023-04-23T10:14:26;5.78;;;2.25;;
70985;SDS011;58645;43.068;25.610;2023-04-23T10:16:57;3.30;;;2.47;;
70985;SDS011;58645;43.068;25.610;2023-04-23T10:19:31;6.00;;;2.50;;
70985;SDS011;58645;43.068;25.610;2023-04-23T10:22:03;6.47;;;2.35;;
70985;SDS011;58645;43.068;25.610;2023-04-23T10:24:32;4.05;;;2.42;;
70985;SDS011;58645;43.068;25.610;2023-04-23T10:27:10;3.95;;;2.42;;
70985;SDS011;58645;43.068;25.610;2023-04-23T10:29:39;4.32;;;2.28;;
70985;SDS011;58645;43.068;25.610;2023-04-23T10:32:07;4.70;;;2.28;;
70985;SDS011;58645;43.068;25.610;2023-04-23T10:34:33;4.65;;;2.08;;
70985;SDS011;58645;43.068;25.610;2023-04-23T10:37:00;5.90;;;2.25;;
70985;SDS011;58645;43.068;25.610;2023-04-23T10:39:32;4.85;;;2.15;;
70985;SDS011;58645;43.068;25.610;2023-04-23T10:41:59;5.22;;;2.45;;
70985;SDS011;58645;43.068;25.610;2023-04-23T10:44:36;4.28;;;2.47;;
70985;SDS011;58645;43.068;25.610;2023-04-23T10:47:03;4.90;;;2.40;;
70985;SDS011;58645;43.068;25.610;2023-04-23T10:49:30;4.07;;;2.15;;
70985;SDS011;58645;43.068;25.610;2023-04-23T10:51:58;3.85;;;2.65;;
70985;SDS011;58645;43.068;25.610;2023-04-23T10:54:43;4.13;;;2.38;;
70985;SDS011;58645;43.068;25.610;2023-04-23T10:57:20;3.53;;;2.28;;
70985;SDS011;58645;43.068;25.610;2023-04-23T10:59:53;5.03;;;2.38;;
70985;SDS011;58645;43.068;25.610;2023-04-23T11:02:21;5.00;;;2.50;;
70985;SDS011;58645;43.068;25.610;2023-04-23T11:04:55;4.68;;;2.28;;
70985;SDS011;58645;43.068;25.610;2023-04-23T11:07:31;3.03;;;1.92;;
70985;SDS011;58645;43.068;25.610;2023-04-23T11:09:58;4.75;;;2.22;;
70985;SDS011;58645;43.068;25.610;2023-04-23T11:14:57;2.92;;;2.15;;
70985;SDS011;58645;43.068;25.610;2023-04-23T11:22:47;5.93;;;1.85;;
70985;SDS011;58645;43.068;25.610;2023-04-23T11:25:18;2.90;;;2.58;;
70985;SDS011;58645;43.068;25.610;2023-04-23T11:27:49;5.35;;;2.47;;
70985;SDS011;58645;43.068;25.610;2023-04-23T11:30:16;5.18;;;2.58;;
70985;SDS011;58645;43.068;25.610;2023-04-23T11:32:45;4.20;;;2.45;;
70985;SDS011;58645;43.068;25.610;2023-04-23T11:35:13;2.95;;;1.75;;
70985;SDS011;58645;43.068;25.610;2023-04-23T11:37:40;5.43;;;2.53;;
70985;SDS011;58645;43.068;25.610;2023-04-23T11:40:08;7.22;;;2.53;;
70985;SDS011;58645;43.068;25.610;2023-04-23T11:42:43;3.05;;;2.50;;
70985;SDS011;58645;43.068;25.610;2023-04-23T11:47:40;4.60;;;2.50;;
70985;SDS011;58645;43.068;25.610;2023-04-23T11:50:06;2.75;;;1.92;;
70985;SDS011;58645;43.068;25.610;2023-04-23T11:52:32;6.57;;;2.33;;
70985;SDS011;58645;43.068;25.610;2023-04-23T11:55:05;3.38;;;1.80;;
70985;SDS011;58645;43.068;25.610;2023-04-23T11:57:52;6.65;;;2.78;;
70985;SDS011;58645;43.068;25.610;2023-04-23T12:00:18;3.83;;;2.30;;
70985;SDS011;58645;43.068;25.610;2023-04-23T12:02:49;3.55;;;2.42;;
70985;SDS011;58645;43.068;25.610;2023-04-23T12:08:06;6.05;;;2.50;;
70985;SDS011;58645;43.068;25.610;2023-04-23T12:10:44;3.88;;;2.30;;
70985;SDS011;58645;43.068;25.610;2023-04-23T12:15:53;6.70;;;2.30;;
70985;SDS011;58645;43.068;25.610;2023-04-23T12:18:25;5.40;;;2.42;;
70985;SDS011;58645;43.068;25.610;2023-04-23T12:23:18;4.90;;;2.00;;
70985;SDS011;58645;43.068;25.610;2023-04-23T12:25:51;4.70;;;2.00;;
70985;SDS011;58645;43.068;25.610;2023-04-23T12:28:21;5.65;;;2.53;;
70985;SDS011;58645;43.068;25.610;2023-04-23T12:30:48;4.57;;;2.10;;
70985;SDS011;58645;43.068;25.610;2023-04-23T12:33:14;4.43;;;2.40;;
70985;SDS011;58645;43.068;25.610;2023-04-23T12:40:51;5.03;;;2.50;;
70985;SDS011;58645;43.068;25.610;2023-04-23T12:43:18;4.53;;;2.47;;
70985;SDS011;58645;43.068;25.610;2023-04-23T12:48:10;4.70;;;2.05;;
70985;SDS011;58645;43.068;25.610;2023-04-23T12:50:36;4.18;;;2.88;;
70985;SDS011;58645;43.068;25.610;2023-04-23T12:53:02;7.43;;;3.97;;
70985;SDS011;58645;43.068;25.610;2023-04-23T12:55:28;8.18;;;3.78;;
70985;SDS011;58645;43.068;25.610;2023-04-23T12:57:54;12.85;;;6.00;;
70985;SDS011;58645;43.068;25.610;2023-04-23T13:00:20;7.75;;;4.90;;
70985;SDS011;58645;43.068;25.610;2023-04-23T13:02:46;14.20;;;4.63;;
70985;SDS011;58645;43.068;25.610;2023-04-23T13:05:12;5.30;;;3.28;;
70985;SDS011;58645;43.068;25.610;2023-04-23T13:07:39;3.95;;;3.10;;
70985;SDS011;58645;43.068;25.610;2023-04-23T13:10:05;7.50;;;3.33;;
70985;SDS011;58645;43.068;25.610;2023-04-23T13:12:31;5.88;;;2.95;;
70985;SDS011;58645;43.068;25.610;2023-04-23T13:14:57;3.90;;;3.17;;
70985;SDS011;58645;43.068;25.610;2023-04-23T13:17:23;5.90;;;3.03;;
70985;SDS011;58645;43.068;25.610;2023-04-23T13:19:53;4.90;;;2.85;;
70985;SDS011;58645;43.068;25.610;2023-04-23T13:22:20;3.80;;;2.80;;
70985;SDS011;58645;43.068;25.610;2023-04-23T13:24:47;4.90;;;2.78;;
70985;SDS011;58645;43.068;25.610;2023-04-23T13:27:13;3.92;;;2.60;;
70985;SDS011;58645;43.068;25.610;2023-04-23T13:29:39;2.65;;;2.08;;
70985;SDS011;58645;43.068;25.610;2023-04-23T13:32:05;3.67;;;2.75;;
70985;SDS011;58645;43.068;25.610;2023-04-23T13:34:30;6.03;;;3.15;;
70985;SDS011;58645;43.068;25.610;2023-04-23T13:36:58;5.40;;;3.03;;
70985;SDS011;58645;43.068;25.610;2023-04-23T13:39:24;4.53;;;3.00;;
70985;SDS011;58645;43.068;25.610;2023-04-23T13:41:50;6.05;;;3.75;;
70985;SDS011;58645;43.068;25.610;2023-04-23T13:44:16;7.10;;;3.40;;
70985;SDS011;58645;43.068;25.610;2023-04-23T13:46:41;8.02;;;5.78;;
70985;SDS011;58645;43.068;25.610;2023-04-23T13:49:07;12.68;;;6.88;;
70985;SDS011;58645;43.068;25.610;2023-04-23T13:51:33;6.88;;;4.68;;
70985;SDS011;58645;43.068;25.610;2023-04-23T13:53:59;6.40;;;3.92;;
70985;SDS011;58645;43.068;25.610;2023-04-23T13:56:25;4.60;;;3.60;;
70985;SDS011;58645;43.068;25.610;2023-04-23T14:01:17;5.45;;;2.03;;
70985;SDS011;58645;43.068;25.610;2023-04-23T14:03:43;5.50;;;2.92;;
70985;SDS011;58645;43.068;25.610;2023-04-23T14:06:10;5.35;;;2.75;;
70985;SDS011;58645;43.068;25.610;2023-04-23T14:08:35;5.30;;;2.50;;
70985;SDS011;58645;43.068;25.610;2023-04-23T14:11:02;5.32;;;2.95;;
70985;SDS011;58645;43.068;25.610;2023-04-23T14:13:29;3.83;;;2.67;;
70985;SDS011;58645;43.068;25.610;2023-04-23T14:15:55;4.65;;;2.92;;
70985;SDS011;58645;43.068;25.610;2023-04-23T14:18:21;4.57;;;3.00;;
70985;SDS011;58645;43.068;25.610;2023-04-23T14:26:02;6.05;;;4.53;;
70985;SDS011;58645;43.068;25.610;2023-04-23T14:28:38;4.95;;;3.22;;
70985;SDS011;58645;43.068;25.610;2023-04-23T14:31:08;5.65;;;2.97;;
70985;SDS011;58645;43.068;25.610;2023-04-23T14:33:34;3.95;;;3.08;;
70985;SDS011;58645;43.068;25.610;2023-04-23T14:36:00;3.90;;;2.78;;
70985;SDS011;58645;43.068;25.610;2023-04-23T14:38:26;4.00;;;2.92;;
70985;SDS011;58645;43.068;25.610;2023-04-23T14:40:52;4.85;;;3.15;;
70985;SDS011;58645;43.068;25.610;2023-04-23T14:43:18;3.72;;;3.13;;
70985;SDS011;58645;43.068;25.610;2023-04-23T14:45:43;7.07;;;4.13;;
70985;SDS011;58645;43.068;25.610;2023-04-23T14:48:09;5.35;;;3.50;;
70985;SDS011;58645;43.068;25.610;2023-04-23T14:50:35;5.47;;;2.97;;
70985;SDS011;58645;43.068;25.610;2023-04-23T14:53:01;4.78;;;3.15;;
70985;SDS011;58645;43.068;25.610;2023-04-23T14:55:32;7.88;;;3.88;;
70985;SDS011;58645;43.068;25.610;2023-04-23T14:57:58;5.43;;;3.05;;
70985;SDS011;58645;43.068;25.610;2023-04-23T15:00:23;6.93;;;3.22;;
70985;SDS011;58645;43.068;25.610;2023-04-23T15:02:49;6.40;;;3.05;;
70985;SDS011;58645;43.068;25.610;2023-04-23T15:07:41;5.30;;;2.67;;
70985;SDS011;58645;43.068;25.610;2023-04-23T15:10:08;4.22;;;2.92;;
70985;SDS011;58645;43.068;25.610;2023-04-23T15:15:03;3.45;;;2.65;;
70985;SDS011;58645;43.068;25.610;2023-04-23T15:17:31;3.75;;;2.50;;
70985;SDS011;58645;43.068;25.610;2023-04-23T15:19:57;4.28;;;3.17;;
70985;SDS011;58645;43.068;25.610;2023-04-23T15:22:24;4.20;;;2.50;;
70985;SDS011;58645;43.068;25.610;2023-04-23T15:27:16;3.25;;;2.25;;
70985;SDS011;58645;43.068;25.610;2023-04-23T15:29:42;2.63;;;2.00;;
70985;SDS011;58645;43.068;25.610;2023-04-23T15:32:08;5.35;;;2.28;;